sensor_id;sensor_type;location;lat;lon;timestamp;pressure;altitude;pressure_sealevel;temperature;humidity
10135;BME280;5107;48.850;8.924;2024-02-21T00:01:46;97734.78;;;6.17;83.17
10135;BME280;5107;48.850;8.924;2024-02-21T00:04:11;97740.72;;;6.19;82.66
10135;BME280;5107;48.850;8.924;2024-02-21T00:06:37;97740.00;;;6.17;83.01
10135;BME280;5107;48.850;8.924;2024-02-21T00:09:02;97737.63;;;6.25;82.94
10135;BME280;5107;48.850;8.924;2024-02-21T00:11:28;97730.84;;;6.45;81.17
10135;BME280;5107;48.850;8.924;2024-02-21T00:13:53;97717.94;;;6.43;80.23
10135;BME280;5107;48.850;8.924;2024-02-21T00:16:19;97716.25;;;6.42;80.25
10135;BME280;5107;48.850;8.924;2024-02-21T00:18:44;97708.78;;;6.27;80.29
10135;BME280;5107;48.850;8.924;2024-02-21T00:21:10;97703.41;;;6.28;81.29
10135;BME280;5107;48.850;8.924;2024-02-21T00:23:40;97695.09;;;6.23;81.17
10135;BME280;5107;48.850;8.924;2024-02-21T00:26:06;97692.97;;;6.17;81.40
10135;BME280;5107;48.850;8.924;2024-02-21T00:28:31;97690.81;;;6.22;82.02
10135;BME280;5107;48.850;8.924;2024-02-21T00:30:56;97685.38;;;6.25;82.57
10135;BME280;5107;48.850;8.924;2024-02-21T00:33:22;97690.94;;;6.32;81.46
10135;BME280;5107;48.850;8.924;2024-02-21T00:35:47;97686.34;;;6.35;81.89
10135;BME280;5107;48.850;8.924;2024-02-21T00:38:12;97678.22;;;6.38;82.46
10135;BME280;5107;48.850;8.924;2024-02-21T00:40:37;97672.44;;;6.35;81.47
10135;BME280;5107;48.850;8.924;2024-02-21T00:43:03;97671.59;;;6.34;81.23
10135;BME280;5107;48.850;8.924;2024-02-21T00:45:28;97674.91;;;6.36;80.93
10135;BME280;5107;48.850;8.924;2024-02-21T00:47:53;97672.06;;;6.39;81.13
10135;BME280;5107;48.850;8.924;2024-02-21T00:50:19;97664.09;;;6.41;80.72
10135;BME280;5107;48.850;8.924;2024-02-21T00:52:44;97666.34;;;6.45;81.27
10135;BME280;5107;48.850;8.924;2024-02-21T00:55:10;97659.59;;;6.43;81.21
10135;BME280;5107;48.850;8.924;2024-02-21T00:57:35;97658.41;;;6.36;80.99
10135;BME280;5107;48.850;8.924;2024-02-21T01:00:02;97647.25;;;6.23;81.13
10135;BME280;5107;48.850;8.924;2024-02-21T01:02:27;97648.91;;;6.13;81.47
10135;BME280;5107;48.850;8.924;2024-02-21T01:04:53;97643.44;;;6.04;81.43
10135;BME280;5107;48.850;8.924;2024-02-21T01:07:18;97640.47;;;5.98;81.91
10135;BME280;5107;48.850;8.924;2024-02-21T01:09:43;97636.91;;;5.99;82.85
10135;BME280;5107;48.850;8.924;2024-02-21T01:12:09;97628.97;;;6.00;82.59
10135;BME280;5107;48.850;8.924;2024-02-21T01:14:34;97622.19;;;5.98;82.54
10135;BME280;5107;48.850;8.924;2024-02-21T01:16:59;97623.25;;;5.95;82.33
10135;BME280;5107;48.850;8.924;2024-02-21T01:19:25;97628.34;;;5.97;82.57
10135;BME280;5107;48.850;8.924;2024-02-21T01:21:50;97614.47;;;5.96;81.96
10135;BME280;5107;48.850;8.924;2024-02-21T01:24:15;97617.19;;;5.95;82.90
10135;BME280;5107;48.850;8.924;2024-02-21T01:26:41;97613.28;;;5.89;82.51
10135;BME280;5107;48.850;8.924;2024-02-21T01:29:06;97609.34;;;5.84;82.54
10135;BME280;5107;48.850;8.924;2024-02-21T01:31:31;97606.50;;;5.76;82.70
10135;BME280;5107;48.850;8.924;2024-02-21T01:33:57;97600.06;;;5.68;83.31
10135;BME280;5107;48.850;8.924;2024-02-21T01:36:23;97596.03;;;5.64;83.77
10135;BME280;5107;48.850;8.924;2024-02-21T01:38:48;97589.03;;;5.65;83.43
10135;BME280;5107;48.850;8.924;2024-02-21T01:41:14;97594.72;;;5.59;83.86
10135;BME280;5107;48.850;8.924;2024-02-21T01:43:39;97583.34;;;5.60;84.00
10135;BME280;5107;48.850;8.924;2024-02-21T01:46:04;97588.66;;;5.58;84.36
10135;BME280;5107;48.850;8.924;2024-02-21T01:48:30;97587.72;;;5.59;84.78
10135;BME280;5107;48.850;8.924;2024-02-21T01:50:56;97580.72;;;5.60;84.40
10135;BME280;5107;48.850;8.924;2024-02-21T01:53:35;97582.38;;;5.61;84.49
10135;BME280;5107;48.850;8.924;2024-02-21T01:56:02;97572.75;;;5.61;84.23
10135;BME280;5107;48.850;8.924;2024-02-21T01:58:28;97576.59;;;5.68;83.59
10135;BME280;5107;48.850;8.924;2024-02-21T02:00:56;97568.16;;;5.65;83.64
10135;BME280;5107;48.850;8.924;2024-02-21T02:03:22;97564.22;;;5.70;83.07
10135;BME280;5107;48.850;8.924;2024-02-21T02:05:49;97550.94;;;5.73;82.57
10135;BME280;5107;48.850;8.924;2024-02-21T02:08:21;97562.09;;;5.76;83.16
10135;BME280;5107;48.850;8.924;2024-02-21T02:10:48;97553.19;;;5.78;82.82
10135;BME280;5107;48.850;8.924;2024-02-21T02:13:13;97537.16;;;5.83;82.43
10135;BME280;5107;48.850;8.924;2024-02-21T02:15:45;97538.56;;;5.87;82.73
10135;BME280;5107;48.850;8.924;2024-02-21T02:18:11;97539.09;;;5.92;83.00
10135;BME280;5107;48.850;8.924;2024-02-21T02:20:37;97533.03;;;5.91;83.19
10135;BME280;5107;48.850;8.924;2024-02-21T02:25:40;97510.84;;;5.86;83.24
10135;BME280;5107;48.850;8.924;2024-02-21T02:28:06;97503.34;;;5.81;84.14
10135;BME280;5107;48.850;8.924;2024-02-21T02:30:32;97499.66;;;5.84;84.77
10135;BME280;5107;48.850;8.924;2024-02-21T02:32:59;97502.06;;;5.76;85.67
10135;BME280;5107;48.850;8.924;2024-02-21T02:35:24;97495.88;;;5.77;85.33
10135;BME280;5107;48.850;8.924;2024-02-21T02:37:50;97505.72;;;5.84;86.32
10135;BME280;5107;48.850;8.924;2024-02-21T02:40:16;97512.84;;;5.82;86.31
10135;BME280;5107;48.850;8.924;2024-02-21T02:42:41;97522.22;;;5.85;87.10
10135;BME280;5107;48.850;8.924;2024-02-21T02:45:07;97524.25;;;5.92;87.79
10135;BME280;5107;48.850;8.924;2024-02-21T02:47:32;97509.16;;;5.96;86.56
10135;BME280;5107;48.850;8.924;2024-02-21T02:49:59;97502.03;;;5.98;87.51
10135;BME280;5107;48.850;8.924;2024-02-21T02:52:25;97502.84;;;5.87;86.21
10135;BME280;5107;48.850;8.924;2024-02-21T02:54:50;97489.94;;;5.86;87.42
10135;BME280;5107;48.850;8.924;2024-02-21T02:57:17;97506.56;;;5.85;87.68
10135;BME280;5107;48.850;8.924;2024-02-21T02:59:50;97509.78;;;5.77;87.16
10135;BME280;5107;48.850;8.924;2024-02-21T03:02:15;97508.94;;;5.77;88.23
10135;BME280;5107;48.850;8.924;2024-02-21T03:04:41;97504.66;;;5.76;87.90
10135;BME280;5107;48.850;8.924;2024-02-21T03:07:06;97491.84;;;5.72;87.40
10135;BME280;5107;48.850;8.924;2024-02-21T03:09:32;97488.28;;;5.73;88.01
10135;BME280;5107;48.850;8.924;2024-02-21T03:11:57;97477.25;;;5.70;87.09
10135;BME280;5107;48.850;8.924;2024-02-21T03:14:31;97482.22;;;5.73;87.46
10135;BME280;5107;48.850;8.924;2024-02-21T03:16:58;97470.00;;;5.73;88.18
10135;BME280;5107;48.850;8.924;2024-02-21T03:19:23;97464.66;;;5.75;87.58
10135;BME280;5107;48.850;8.924;2024-02-21T03:21:49;97467.38;;;5.85;88.51
10135;BME280;5107;48.850;8.924;2024-02-21T03:24:18;97460.50;;;5.95;87.23
10135;BME280;5107;48.850;8.924;2024-02-21T03:26:43;97463.59;;;6.00;86.89
10135;BME280;5107;48.850;8.924;2024-02-21T03:29:10;97469.84;;;6.08;87.36
10135;BME280;5107;48.850;8.924;2024-02-21T03:31:36;97463.09;;;6.06;86.78
10135;BME280;5107;48.850;8.924;2024-02-21T03:34:01;97461.41;;;6.16;86.88
10135;BME280;5107;48.850;8.924;2024-02-21T03:36:27;97465.63;;;6.28;86.59
10135;BME280;5107;48.850;8.924;2024-02-21T03:38:52;97469.13;;;6.18;86.95
10135;BME280;5107;48.850;8.924;2024-02-21T03:41:19;97470.81;;;6.07;87.58
10135;BME280;5107;48.850;8.924;2024-02-21T03:43:44;97463.16;;;6.27;86.62
10135;BME280;5107;48.850;8.924;2024-02-21T03:46:09;97456.94;;;6.28;85.93
10135;BME280;5107;48.850;8.924;2024-02-21T03:48:36;97450.72;;;6.19;85.87
10135;BME280;5107;48.850;8.924;2024-02-21T03:51:01;97456.28;;;6.15;86.32
10135;BME280;5107;48.850;8.924;2024-02-21T03:53:27;97443.09;;;6.16;86.75
10135;BME280;5107;48.850;8.924;2024-02-21T03:55:53;97452.41;;;6.09;86.11
10135;BME280;5107;48.850;8.924;2024-02-21T03:58:18;97444.66;;;6.19;86.13
10135;BME280;5107;48.850;8.924;2024-02-21T04:00:44;97436.22;;;6.15;86.06
10135;BME280;5107;48.850;8.924;2024-02-21T04:03:09;97431.97;;;6.03;86.01
10135;BME280;5107;48.850;8.924;2024-02-21T04:05:34;97436.88;;;5.96;86.74
10135;BME280;5107;48.850;8.924;2024-02-21T04:07:59;97429.66;;;5.89;86.13
10135;BME280;5107;48.850;8.924;2024-02-21T04:10:25;97420.38;;;5.85;86.86
10135;BME280;5107;48.850;8.924;2024-02-21T04:12:50;97403.91;;;5.62;86.54
10135;BME280;5107;48.850;8.924;2024-02-21T04:15:16;97403.84;;;5.41;87.34
10135;BME280;5107;48.850;8.924;2024-02-21T04:17:41;97412.75;;;5.27;88.26
10135;BME280;5107;48.850;8.924;2024-02-21T04:20:14;97419.88;;;5.25;88.89
10135;BME280;5107;48.850;8.924;2024-02-21T04:22:40;97418.44;;;5.21;88.34
10135;BME280;5107;48.850;8.924;2024-02-21T04:25:05;97424.50;;;5.22;88.05
10135;BME280;5107;48.850;8.924;2024-02-21T04:27:31;97419.28;;;5.22;87.49
10135;BME280;5107;48.850;8.924;2024-02-21T04:29:56;97419.28;;;5.22;87.87
10135;BME280;5107;48.850;8.924;2024-02-21T04:32:21;97415.00;;;5.21;87.96
10135;BME280;5107;48.850;8.924;2024-02-21T04:34:47;97414.78;;;5.24;87.96
10135;BME280;5107;48.850;8.924;2024-02-21T04:37:12;97423.44;;;5.24;88.11
10135;BME280;5107;48.850;8.924;2024-02-21T04:39:37;97421.53;;;5.26;87.42
10135;BME280;5107;48.850;8.924;2024-02-21T04:42:03;97417.97;;;5.27;87.91
10135;BME280;5107;48.850;8.924;2024-02-21T04:44:28;97427.94;;;5.33;87.55
10135;BME280;5107;48.850;8.924;2024-02-21T04:46:54;97422.84;;;5.43;87.62
10135;BME280;5107;48.850;8.924;2024-02-21T04:49:19;97416.06;;;5.41;87.10
10135;BME280;5107;48.850;8.924;2024-02-21T04:51:44;97417.00;;;5.40;87.42
10135;BME280;5107;48.850;8.924;2024-02-21T04:54:10;97411.44;;;5.33;87.44
10135;BME280;5107;48.850;8.924;2024-02-21T04:56:35;97409.56;;;5.35;86.90
10135;BME280;5107;48.850;8.924;2024-02-21T04:59:00;97412.41;;;5.32;87.39
10135;BME280;5107;48.850;8.924;2024-02-21T05:01:26;97409.44;;;5.25;87.50
10135;BME280;5107;48.850;8.924;2024-02-21T05:03:51;97403.28;;;5.26;87.28
10135;BME280;5107;48.850;8.924;2024-02-21T05:06:16;97401.63;;;5.14;88.42
10135;BME280;5107;48.850;8.924;2024-02-21T05:08:42;97403.88;;;5.08;89.38
10135;BME280;5107;48.850;8.924;2024-02-21T05:11:07;97405.75;;;4.94;88.92
10135;BME280;5107;48.850;8.924;2024-02-21T05:13:32;97402.19;;;4.95;89.60
10135;BME280;5107;48.850;8.924;2024-02-21T05:15:58;97396.88;;;5.08;89.75
10135;BME280;5107;48.850;8.924;2024-02-21T05:18:26;97381.38;;;5.61;87.44
10135;BME280;5107;48.850;8.924;2024-02-21T05:20:52;97364.78;;;5.62;85.52
10135;BME280;5107;48.850;8.924;2024-02-21T05:23:17;97370.69;;;5.64;85.77
10135;BME280;5107;48.850;8.924;2024-02-21T05:25:42;97353.31;;;5.42;86.11
10135;BME280;5107;48.850;8.924;2024-02-21T05:28:08;97349.06;;;5.30;85.59
10135;BME280;5107;48.850;8.924;2024-02-21T05:30:33;97344.13;;;5.16;86.49
10135;BME280;5107;48.850;8.924;2024-02-21T05:32:58;97346.28;;;5.00;87.16
10135;BME280;5107;48.850;8.924;2024-02-21T05:35:29;97348.03;;;4.88;87.82
10135;BME280;5107;48.850;8.924;2024-02-21T05:37:54;97342.25;;;4.84;87.91
10135;BME280;5107;48.850;8.924;2024-02-21T05:40:19;97332.66;;;4.85;87.57
10135;BME280;5107;48.850;8.924;2024-02-21T05:42:45;97334.44;;;4.84;87.69
10135;BME280;5107;48.850;8.924;2024-02-21T05:45:10;97343.66;;;4.88;87.31
10135;BME280;5107;48.850;8.924;2024-02-21T05:47:35;97338.22;;;4.91;87.26
10135;BME280;5107;48.850;8.924;2024-02-21T05:50:01;97336.31;;;4.93;86.82
10135;BME280;5107;48.850;8.924;2024-02-21T05:52:26;97346.50;;;4.96;86.74
10135;BME280;5107;48.850;8.924;2024-02-21T05:54:52;97339.38;;;4.99;86.85
10135;BME280;5107;48.850;8.924;2024-02-21T05:57:18;97342.00;;;4.99;86.95
10135;BME280;5107;48.850;8.924;2024-02-21T05:59:43;97348.03;;;4.99;86.64
10135;BME280;5107;48.850;8.924;2024-02-21T06:02:09;97350.03;;;4.95;86.63
10135;BME280;5107;48.850;8.924;2024-02-21T06:04:35;97350.66;;;4.88;86.45
10135;BME280;5107;48.850;8.924;2024-02-21T06:07:01;97335.84;;;4.88;86.62
10135;BME280;5107;48.850;8.924;2024-02-21T06:09:27;97338.66;;;4.85;86.79
10135;BME280;5107;48.850;8.924;2024-02-21T06:11:52;97337.72;;;4.86;86.42
10135;BME280;5107;48.850;8.924;2024-02-21T06:14:18;97330.16;;;4.83;86.90
10135;BME280;5107;48.850;8.924;2024-02-21T06:16:43;97343.31;;;4.82;86.97
10135;BME280;5107;48.850;8.924;2024-02-21T06:19:09;97348.53;;;4.82;87.32
10135;BME280;5107;48.850;8.924;2024-02-21T06:21:34;97350.19;;;4.83;87.15
10135;BME280;5107;48.850;8.924;2024-02-21T06:23:59;97358.56;;;4.86;86.82
10135;BME280;5107;48.850;8.924;2024-02-21T06:26:25;97350.53;;;4.89;86.31
10135;BME280;5107;48.850;8.924;2024-02-21T06:28:50;97347.69;;;4.81;86.15
10135;BME280;5107;48.850;8.924;2024-02-21T06:31:15;97347.09;;;4.78;86.64
10135;BME280;5107;48.850;8.924;2024-02-21T06:33:41;97347.44;;;4.73;87.04
10135;BME280;5107;48.850;8.924;2024-02-21T06:36:06;97346.72;;;4.71;86.87
10135;BME280;5107;48.850;8.924;2024-02-21T06:38:32;97334.78;;;4.80;87.12
10135;BME280;5107;48.850;8.924;2024-02-21T06:40:59;97338.31;;;4.90;86.19
10135;BME280;5107;48.850;8.924;2024-02-21T06:43:25;97333.59;;;4.84;85.83
10135;BME280;5107;48.850;8.924;2024-02-21T06:45:51;97331.69;;;4.75;86.41
10135;BME280;5107;48.850;8.924;2024-02-21T06:48:17;97326.13;;;4.79;86.33
10135;BME280;5107;48.850;8.924;2024-02-21T06:50:43;97317.94;;;4.95;85.38
10135;BME280;5107;48.850;8.924;2024-02-21T06:53:08;97328.69;;;5.24;84.66
10135;BME280;5107;48.850;8.924;2024-02-21T06:55:33;97326.06;;;5.35;83.34
10135;BME280;5107;48.850;8.924;2024-02-21T06:57:59;97334.34;;;5.40;83.29
10135;BME280;5107;48.850;8.924;2024-02-21T07:00:24;97327.84;;;5.34;84.29
10135;BME280;5107;48.850;8.924;2024-02-21T07:02:51;97318.59;;;5.19;83.96
10135;BME280;5107;48.850;8.924;2024-02-21T07:05:16;97311.03;;;5.16;84.41
10135;BME280;5107;48.850;8.924;2024-02-21T07:07:43;97302.38;;;5.16;84.97
10135;BME280;5107;48.850;8.924;2024-02-21T07:10:09;97304.75;;;5.19;85.19
10135;BME280;5107;48.850;8.924;2024-02-21T07:12:34;97312.00;;;5.15;84.73
10135;BME280;5107;48.850;8.924;2024-02-21T07:15:00;97310.31;;;5.25;84.25
10135;BME280;5107;48.850;8.924;2024-02-21T07:17:26;97306.03;;;5.36;83.46
10135;BME280;5107;48.850;8.924;2024-02-21T07:19:51;97307.03;;;5.44;83.69
10135;BME280;5107;48.850;8.924;2024-02-21T07:22:16;97312.31;;;5.65;82.22
10135;BME280;5107;48.850;8.924;2024-02-21T07:24:42;97311.78;;;5.82;81.01
10135;BME280;5107;48.850;8.924;2024-02-21T07:27:07;97304.88;;;6.13;80.65
10135;BME280;5107;48.850;8.924;2024-02-21T07:29:32;97300.88;;;6.51;78.67
10135;BME280;5107;48.850;8.924;2024-02-21T07:31:58;97298.25;;;6.51;78.52
10135;BME280;5107;48.850;8.924;2024-02-21T07:34:23;97294.69;;;6.61;77.69
10135;BME280;5107;48.850;8.924;2024-02-21T07:36:51;97292.75;;;6.54;76.78
10135;BME280;5107;48.850;8.924;2024-02-21T07:39:17;97291.63;;;6.46;76.94
10135;BME280;5107;48.850;8.924;2024-02-21T07:41:42;97290.34;;;6.41;77.32
10135;BME280;5107;48.850;8.924;2024-02-21T07:44:10;97276.81;;;6.57;76.99
10135;BME280;5107;48.850;8.924;2024-02-21T07:46:35;97277.84;;;6.75;76.66
10135;BME280;5107;48.850;8.924;2024-02-21T07:49:00;97282.28;;;6.84;77.00
10135;BME280;5107;48.850;8.924;2024-02-21T07:51:28;97275.78;;;6.78;76.34
10135;BME280;5107;48.850;8.924;2024-02-21T07:53:53;97272.88;;;6.72;76.83
10135;BME280;5107;48.850;8.924;2024-02-21T07:56:18;97268.44;;;6.63;76.02
10135;BME280;5107;48.850;8.924;2024-02-21T07:58:44;97272.00;;;6.52;75.98
10135;BME280;5107;48.850;8.924;2024-02-21T08:01:10;97271.75;;;6.65;76.62
10135;BME280;5107;48.850;8.924;2024-02-21T08:03:36;97277.16;;;6.73;74.95
10135;BME280;5107;48.850;8.924;2024-02-21T08:06:02;97286.41;;;6.86;74.87
10135;BME280;5107;48.850;8.924;2024-02-21T08:08:27;97283.78;;;6.86;74.54
10135;BME280;5107;48.850;8.924;2024-02-21T08:10:53;97286.22;;;7.09;74.27
10135;BME280;5107;48.850;8.924;2024-02-21T08:13:18;97287.06;;;7.29;74.64
10135;BME280;5107;48.850;8.924;2024-02-21T08:15:43;97282.44;;;7.42;74.17
10135;BME280;5107;48.850;8.924;2024-02-21T08:18:09;97275.00;;;7.47;73.65
10135;BME280;5107;48.850;8.924;2024-02-21T08:20:34;97271.84;;;7.72;72.98
10135;BME280;5107;48.850;8.924;2024-02-21T08:23:00;97275.16;;;8.03;72.07
10135;BME280;5107;48.850;8.924;2024-02-21T08:25:25;97268.91;;;8.14;69.80
10135;BME280;5107;48.850;8.924;2024-02-21T08:27:51;97262.69;;;8.34;72.92
10135;BME280;5107;48.850;8.924;2024-02-21T08:30:19;97258.78;;;8.48;69.51
10135;BME280;5107;48.850;8.924;2024-02-21T08:32:45;97256.22;;;8.65;68.63
10135;BME280;5107;48.850;8.924;2024-02-21T08:35:10;97242.53;;;8.71;68.47
10135;BME280;5107;48.850;8.924;2024-02-21T08:37:37;97244.78;;;8.66;68.71
10135;BME280;5107;48.850;8.924;2024-02-21T08:40:02;97240.97;;;8.51;68.05
10135;BME280;5107;48.850;8.924;2024-02-21T08:42:34;97245.03;;;8.26;68.92
10135;BME280;5107;48.850;8.924;2024-02-21T08:45:00;97243.00;;;8.01;69.83
10135;BME280;5107;48.850;8.924;2024-02-21T08:47:25;97239.97;;;7.96;70.71
10135;BME280;5107;48.850;8.924;2024-02-21T08:49:50;97238.84;;;7.98;71.13
10135;BME280;5107;48.850;8.924;2024-02-21T08:52:15;97239.28;;;7.94;71.15
10135;BME280;5107;48.850;8.924;2024-02-21T08:54:41;97229.22;;;7.99;71.37
10135;BME280;5107;48.850;8.924;2024-02-21T08:57:06;97226.59;;;7.80;71.01
10135;BME280;5107;48.850;8.924;2024-02-21T08:59:32;97221.34;;;7.89;71.52
10135;BME280;5107;48.850;8.924;2024-02-21T09:01:57;97219.81;;;8.06;70.55
10135;BME280;5107;48.850;8.924;2024-02-21T09:04:22;97224.53;;;7.93;70.61
10135;BME280;5107;48.850;8.924;2024-02-21T09:06:48;97220.38;;;8.10;70.71
10135;BME280;5107;48.850;8.924;2024-02-21T09:09:13;97233.16;;;8.32;69.87
10135;BME280;5107;48.850;8.924;2024-02-21T09:11:38;97219.44;;;8.48;70.00
10135;BME280;5107;48.850;8.924;2024-02-21T09:14:05;97226.69;;;8.63;69.77
10135;BME280;5107;48.850;8.924;2024-02-21T09:16:31;97221.53;;;8.71;67.72
10135;BME280;5107;48.850;8.924;2024-02-21T09:18:57;97214.25;;;8.93;67.95
10135;BME280;5107;48.850;8.924;2024-02-21T09:21:22;97217.25;;;8.70;67.47
10135;BME280;5107;48.850;8.924;2024-02-21T09:23:48;97212.50;;;8.84;67.35
10135;BME280;5107;48.850;8.924;2024-02-21T09:26:13;97210.06;;;9.00;67.05
10135;BME280;5107;48.850;8.924;2024-02-21T09:28:41;97199.22;;;9.30;66.11
10135;BME280;5107;48.850;8.924;2024-02-21T09:31:06;97200.44;;;9.54;65.26
10135;BME280;5107;48.850;8.924;2024-02-21T09:33:32;97204.41;;;9.58;65.03
10135;BME280;5107;48.850;8.924;2024-02-21T09:35:57;97200.63;;;9.96;64.97
10135;BME280;5107;48.850;8.924;2024-02-21T09:38:22;97195.22;;;10.05;65.23
10135;BME280;5107;48.850;8.924;2024-02-21T09:41:15;97197.25;;;10.29;63.49
10135;BME280;5107;48.850;8.924;2024-02-21T09:43:41;97182.16;;;10.39;63.39
10135;BME280;5107;48.850;8.924;2024-02-21T09:46:08;97180.94;;;10.59;62.91
10135;BME280;5107;48.850;8.924;2024-02-21T09:49:09;97185.81;;;10.96;60.58
10135;BME280;5107;48.850;8.924;2024-02-21T09:51:39;97172.63;;;10.88;59.71
10135;BME280;5107;48.850;8.924;2024-02-21T09:54:07;97172.94;;;10.35;61.02
10135;BME280;5107;48.850;8.924;2024-02-21T09:56:32;97174.69;;;10.01;60.96
10135;BME280;5107;48.850;8.924;2024-02-21T09:58:58;97168.91;;;10.23;62.03
10135;BME280;5107;48.850;8.924;2024-02-21T10:01:23;97167.69;;;10.35;60.48
10135;BME280;5107;48.850;8.924;2024-02-21T10:03:49;97166.19;;;10.33;60.93
10135;BME280;5107;48.850;8.924;2024-02-21T10:06:14;97160.47;;;10.37;60.92
10135;BME280;5107;48.850;8.924;2024-02-21T10:08:40;97155.50;;;10.34;60.31
10135;BME280;5107;48.850;8.924;2024-02-21T10:11:05;97149.09;;;10.11;61.23
10135;BME280;5107;48.850;8.924;2024-02-21T10:13:31;97156.38;;;9.91;61.15
10135;BME280;5107;48.850;8.924;2024-02-21T10:16:07;97149.22;;;10.01;60.85
10135;BME280;5107;48.850;8.924;2024-02-21T10:18:33;97147.66;;;10.16;60.04
10135;BME280;5107;48.850;8.924;2024-02-21T10:21:06;97149.72;;;10.31;60.60
10135;BME280;5107;48.850;8.924;2024-02-21T10:26:07;97137.84;;;10.52;59.77
10135;BME280;5107;48.850;8.924;2024-02-21T10:28:33;97127.03;;;10.72;59.75
10135;BME280;5107;48.850;8.924;2024-02-21T10:30:58;97125.72;;;10.68;59.16
10135;BME280;5107;48.850;8.924;2024-02-21T10:33:23;97125.75;;;10.84;58.89
10135;BME280;5107;48.850;8.924;2024-02-21T10:35:50;97130.06;;;11.01;59.09
10135;BME280;5107;48.850;8.924;2024-02-21T10:38:16;97124.97;;;10.99;58.11
10135;BME280;5107;48.850;8.924;2024-02-21T10:40:42;97124.97;;;11.16;57.66
10135;BME280;5107;48.850;8.924;2024-02-21T10:43:12;97117.09;;;11.24;57.22
10135;BME280;5107;48.850;8.924;2024-02-21T10:45:38;97110.16;;;11.55;58.48
10135;BME280;5107;48.850;8.924;2024-02-21T10:48:13;97115.44;;;11.31;56.82
10135;BME280;5107;48.850;8.924;2024-02-21T10:51:02;97111.19;;;11.38;58.20
10135;BME280;5107;48.850;8.924;2024-02-21T10:56:33;97092.53;;;11.64;56.91
10135;BME280;5107;48.850;8.924;2024-02-21T10:59:04;97102.91;;;11.90;56.20
10135;BME280;5107;48.850;8.924;2024-02-21T11:01:30;97091.09;;;12.25;55.30
10135;BME280;5107;48.850;8.924;2024-02-21T11:04:08;97087.34;;;12.19;54.43
10135;BME280;5107;48.850;8.924;2024-02-21T11:06:38;97089.25;;;12.33;54.34
10135;BME280;5107;48.850;8.924;2024-02-21T11:11:34;97069.34;;;12.62;55.84
10135;BME280;5107;48.850;8.924;2024-02-21T11:14:17;97058.13;;;12.60;54.30
10135;BME280;5107;48.850;8.924;2024-02-21T11:16:43;97056.56;;;12.03;54.40
10135;BME280;5107;48.850;8.924;2024-02-21T11:19:29;97049.81;;;12.01;54.58
10135;BME280;5107;48.850;8.924;2024-02-21T11:21:56;97043.69;;;12.39;53.25
10135;BME280;5107;48.850;8.924;2024-02-21T11:24:27;97044.00;;;12.44;52.44
10135;BME280;5107;48.850;8.924;2024-02-21T11:26:54;97034.53;;;12.81;52.74
10135;BME280;5107;48.850;8.924;2024-02-21T11:29:24;97038.94;;;12.66;53.61
10135;BME280;5107;48.850;8.924;2024-02-21T11:31:50;97031.28;;;12.17;54.29
10135;BME280;5107;48.850;8.924;2024-02-21T11:34:18;97022.84;;;11.74;55.20
10135;BME280;5107;48.850;8.924;2024-02-21T11:36:51;97019.34;;;11.90;55.03
10135;BME280;5107;48.850;8.924;2024-02-21T11:39:25;97012.28;;;11.83;54.25
10135;BME280;5107;48.850;8.924;2024-02-21T11:44:29;97011.00;;;12.18;54.23
10135;BME280;5107;48.850;8.924;2024-02-21T11:46:54;97010.50;;;12.14;55.65
10135;BME280;5107;48.850;8.924;2024-02-21T11:49:20;96999.44;;;11.88;53.98
10135;BME280;5107;48.850;8.924;2024-02-21T11:51:46;96994.97;;;11.72;55.08
10135;BME280;5107;48.850;8.924;2024-02-21T11:54:11;96997.31;;;11.75;54.68
10135;BME280;5107;48.850;8.924;2024-02-21T11:56:38;96990.69;;;11.87;54.21
10135;BME280;5107;48.850;8.924;2024-02-21T11:59:03;96984.81;;;12.08;54.15
10135;BME280;5107;48.850;8.924;2024-02-21T12:01:31;96986.84;;;11.98;53.91
10135;BME280;5107;48.850;8.924;2024-02-21T12:03:57;96975.31;;;12.30;54.22
10135;BME280;5107;48.850;8.924;2024-02-21T12:06:22;96966.47;;;12.14;54.78
10135;BME280;5107;48.850;8.924;2024-02-21T12:08:47;96955.06;;;12.22;53.60
10135;BME280;5107;48.850;8.924;2024-02-21T12:11:20;96954.72;;;12.25;53.18
10135;BME280;5107;48.850;8.924;2024-02-21T12:13:47;96944.78;;;12.04;53.97
10135;BME280;5107;48.850;8.924;2024-02-21T12:16:15;96933.41;;;12.35;54.21
10135;BME280;5107;48.850;8.924;2024-02-21T12:18:41;96929.22;;;12.18;54.30
10135;BME280;5107;48.850;8.924;2024-02-21T12:21:07;96935.44;;;12.47;53.72
10135;BME280;5107;48.850;8.924;2024-02-21T12:23:32;96935.03;;;12.59;53.37
10135;BME280;5107;48.850;8.924;2024-02-21T12:25:59;96923.41;;;12.68;52.97
10135;BME280;5107;48.850;8.924;2024-02-21T12:28:24;96909.38;;;12.67;51.67
10135;BME280;5107;48.850;8.924;2024-02-21T12:30:51;96918.84;;;12.62;52.62
10135;BME280;5107;48.850;8.924;2024-02-21T12:33:17;96901.72;;;12.58;51.58
10135;BME280;5107;48.850;8.924;2024-02-21T12:35:43;96905.63;;;12.84;52.84
10135;BME280;5107;48.850;8.924;2024-02-21T12:38:08;96889.09;;;13.05;51.35
10135;BME280;5107;48.850;8.924;2024-02-21T12:40:33;96882.09;;;12.89;49.72
10135;BME280;5107;48.850;8.924;2024-02-21T12:43:00;96885.31;;;13.00;50.61
10135;BME280;5107;48.850;8.924;2024-02-21T12:45:27;96875.53;;;12.71;50.09
10135;BME280;5107;48.850;8.924;2024-02-21T12:47:53;96868.56;;;12.92;51.12
10135;BME280;5107;48.850;8.924;2024-02-21T12:50:18;96873.50;;;13.10;49.85
10135;BME280;5107;48.850;8.924;2024-02-21T12:52:44;96862.13;;;13.24;49.87
10135;BME280;5107;48.850;8.924;2024-02-21T12:55:10;96859.59;;;13.46;50.12
10135;BME280;5107;48.850;8.924;2024-02-21T12:57:37;96853.56;;;13.22;48.70
10135;BME280;5107;48.850;8.924;2024-02-21T13:00:02;96853.78;;;13.21;49.21
10135;BME280;5107;48.850;8.924;2024-02-21T13:02:29;96847.19;;;13.32;49.23
10135;BME280;5107;48.850;8.924;2024-02-21T13:04:54;96848.38;;;13.29;47.72
10135;BME280;5107;48.850;8.924;2024-02-21T13:07:19;96832.66;;;12.98;48.46
10135;BME280;5107;48.850;8.924;2024-02-21T13:09:45;96827.28;;;13.06;47.61
10135;BME280;5107;48.850;8.924;2024-02-21T13:12:10;96824.22;;;13.17;48.88
10135;BME280;5107;48.850;8.924;2024-02-21T13:14:35;96823.28;;;13.40;48.35
10135;BME280;5107;48.850;8.924;2024-02-21T13:17:04;96816.06;;;13.48;47.75
10135;BME280;5107;48.850;8.924;2024-02-21T13:19:29;96814.69;;;13.67;47.45
10135;BME280;5107;48.850;8.924;2024-02-21T13:21:55;96813.75;;;13.75;46.70
10135;BME280;5107;48.850;8.924;2024-02-21T13:24:20;96801.84;;;13.85;46.00
10135;BME280;5107;48.850;8.924;2024-02-21T13:26:45;96780.44;;;14.01;45.99
10135;BME280;5107;48.850;8.924;2024-02-21T13:29:11;96783.78;;;14.10;45.19